North Park, Indiana
Current Conditions -  °F | °C
As of 4:54 PM on Wednesday 26 Nov 2014 (Local Time) from KEVV Reporting Station
Overcast Overcast  
Wind Chill: 35°   Ceiling: 6000
Heat Index: 39°   Visibility: 10mi
Dew Point: 29°   Wind: 6mph
Humidity: 67%   Direction: 40°NE
Pressure: 30.03"   Gusts: NA
Location:  38.0194°N, 87.5754°W
Report Text: KEVV 262254Z 04005KT 10SM FEW047 OVC060 04/M02 A3003 RMK AO2 SLP173 T00391017
Loading
Personal Weather Stations






























Interactive Weather Map New forecast layout! Learn more

10-Day Weather Forecast

Advertisements
Track Severe Weather on mobile